sensor_id;sensor_type;location;lat;lon;timestamp;temperature;humidity
74376;HTU21D;62812;55.188;61.302;2023-06-10T00:01:45;14.96;63.66
74376;HTU21D;62812;55.188;61.302;2023-06-10T00:04:14;14.97;63.08
74376;HTU21D;62812;55.188;61.302;2023-06-10T00:06:43;14.96;63.29
74376;HTU21D;62812;55.188;61.302;2023-06-10T00:09:12;14.97;62.92
74376;HTU21D;62812;55.188;61.302;2023-06-10T00:11:42;14.99;63.43
74376;HTU21D;62812;55.188;61.302;2023-06-10T00:14:09;15.01;63.69
74376;HTU21D;62812;55.188;61.302;2023-06-10T00:16:35;15.02;62.78
74376;HTU21D;62812;55.188;61.302;2023-06-10T00:19:03;15.08;62.15
74376;HTU21D;62812;55.188;61.302;2023-06-10T00:21:31;15.07;61.74
74376;HTU21D;62812;55.188;61.302;2023-06-10T00:24:04;15.09;61.55
74376;HTU21D;62812;55.188;61.302;2023-06-10T00:26:31;15.14;61.76
74376;HTU21D;62812;55.188;61.302;2023-06-10T00:29:00;15.18;61.32
74376;HTU21D;62812;55.188;61.302;2023-06-10T00:31:27;15.21;61.48
74376;HTU21D;62812;55.188;61.302;2023-06-10T00:33:53;15.26;62.20
74376;HTU21D;62812;55.188;61.302;2023-06-10T00:36:21;15.31;59.35
74376;HTU21D;62812;55.188;61.302;2023-06-10T00:38:50;15.37;63.18
74376;HTU21D;62812;55.188;61.302;2023-06-10T00:41:17;15.36;63.65
74376;HTU21D;62812;55.188;61.302;2023-06-10T00:43:43;15.40;63.74
74376;HTU21D;62812;55.188;61.302;2023-06-10T00:46:12;15.46;62.04
74376;HTU21D;62812;55.188;61.302;2023-06-10T00:48:40;15.55;62.08
74376;HTU21D;62812;55.188;61.302;2023-06-10T00:51:08;15.58;63.08
74376;HTU21D;62812;55.188;61.302;2023-06-10T00:53:40;15.61;63.21
74376;HTU21D;62812;55.188;61.302;2023-06-10T00:56:08;15.61;63.35
74376;HTU21D;62812;55.188;61.302;2023-06-10T00:58:35;15.61;63.65
74376;HTU21D;62812;55.188;61.302;2023-06-10T01:01:02;15.60;62.60
74376;HTU21D;62812;55.188;61.302;2023-06-10T01:03:31;15.62;63.66
74376;HTU21D;62812;55.188;61.302;2023-06-10T01:06:09;15.65;63.31
74376;HTU21D;62812;55.188;61.302;2023-06-10T01:08:45;15.70;63.74
74376;HTU21D;62812;55.188;61.302;2023-06-10T01:11:19;15.76;63.63
74376;HTU21D;62812;55.188;61.302;2023-06-10T01:13:50;15.89;60.73
74376;HTU21D;62812;55.188;61.302;2023-06-10T01:16:19;15.99;58.06
74376;HTU21D;62812;55.188;61.302;2023-06-10T01:18:48;16.07;58.41
74376;HTU21D;62812;55.188;61.302;2023-06-10T01:21:20;16.25;55.49
74376;HTU21D;62812;55.188;61.302;2023-06-10T01:23:47;16.37;58.54
74376;HTU21D;62812;55.188;61.302;2023-06-10T01:26:15;16.80;55.68
74376;HTU21D;62812;55.188;61.302;2023-06-10T01:28:48;17.29;56.36
74376;HTU21D;62812;55.188;61.302;2023-06-10T01:31:20;17.80;55.02
74376;HTU21D;62812;55.188;61.302;2023-06-10T01:33:52;18.25;53.05
74376;HTU21D;62812;55.188;61.302;2023-06-10T01:36:22;18.51;52.44
74376;HTU21D;62812;55.188;61.302;2023-06-10T01:38:50;18.81;51.13
74376;HTU21D;62812;55.188;61.302;2023-06-10T01:41:21;18.93;50.88
74376;HTU21D;62812;55.188;61.302;2023-06-10T01:43:48;18.80;50.21
74376;HTU21D;62812;55.188;61.302;2023-06-10T01:46:16;18.72;50.02
74376;HTU21D;62812;55.188;61.302;2023-06-10T01:48:46;18.69;50.74
74376;HTU21D;62812;55.188;61.302;2023-06-10T01:51:13;19.00;50.11
74376;HTU21D;62812;55.188;61.302;2023-06-10T01:53:41;19.51;48.51
74376;HTU21D;62812;55.188;61.302;2023-06-10T01:56:09;19.74;47.10
74376;HTU21D;62812;55.188;61.302;2023-06-10T01:58:36;19.83;46.34
74376;HTU21D;62812;55.188;61.302;2023-06-10T02:01:02;20.19;46.32
74376;HTU21D;62812;55.188;61.302;2023-06-10T02:03:29;20.54;45.16
74376;HTU21D;62812;55.188;61.302;2023-06-10T02:05:56;20.84;43.47
74376;HTU21D;62812;55.188;61.302;2023-06-10T02:08:22;21.16;43.46
74376;HTU21D;62812;55.188;61.302;2023-06-10T02:10:51;21.35;41.50
74376;HTU21D;62812;55.188;61.302;2023-06-10T02:13:18;21.47;40.73
74376;HTU21D;62812;55.188;61.302;2023-06-10T02:15:49;21.68;40.43
74376;HTU21D;62812;55.188;61.302;2023-06-10T02:18:16;21.93;39.58
74376;HTU21D;62812;55.188;61.302;2023-06-10T02:20:46;21.95;39.01
74376;HTU21D;62812;55.188;61.302;2023-06-10T02:23:13;22.01;38.67
74376;HTU21D;62812;55.188;61.302;2023-06-10T02:25:43;22.11;38.27
74376;HTU21D;62812;55.188;61.302;2023-06-10T02:28:17;22.21;38.98
74376;HTU21D;62812;55.188;61.302;2023-06-10T02:30:44;22.36;40.87
74376;HTU21D;62812;55.188;61.302;2023-06-10T02:33:16;22.58;37.14
74376;HTU21D;62812;55.188;61.302;2023-06-10T02:35:46;22.80;37.15
74376;HTU21D;62812;55.188;61.302;2023-06-10T02:38:17;22.99;36.98
74376;HTU21D;62812;55.188;61.302;2023-06-10T02:40:44;23.01;36.47
74376;HTU21D;62812;55.188;61.302;2023-06-10T02:43:12;23.10;36.69
74376;HTU21D;62812;55.188;61.302;2023-06-10T02:45:39;23.23;35.24
74376;HTU21D;62812;55.188;61.302;2023-06-10T02:48:12;23.37;36.42
74376;HTU21D;62812;55.188;61.302;2023-06-10T02:50:39;23.31;34.79
74376;HTU21D;62812;55.188;61.302;2023-06-10T02:53:06;23.23;34.78
74376;HTU21D;62812;55.188;61.302;2023-06-10T02:55:33;23.28;34.52
74376;HTU21D;62812;55.188;61.302;2023-06-10T02:58:04;23.50;36.27
74376;HTU21D;62812;55.188;61.302;2023-06-10T03:00:33;23.59;36.08
74376;HTU21D;62812;55.188;61.302;2023-06-10T03:02:59;23.73;35.61
74376;HTU21D;62812;55.188;61.302;2023-06-10T03:05:29;23.88;34.22
74376;HTU21D;62812;55.188;61.302;2023-06-10T03:07:58;23.96;34.53
74376;HTU21D;62812;55.188;61.302;2023-06-10T03:10:25;24.02;35.95
74376;HTU21D;62812;55.188;61.302;2023-06-10T03:12:52;24.11;33.56
74376;HTU21D;62812;55.188;61.302;2023-06-10T03:15:18;24.12;33.64
74376;HTU21D;62812;55.188;61.302;2023-06-10T03:17:50;24.13;33.98
74376;HTU21D;62812;55.188;61.302;2023-06-10T03:20:19;24.31;33.99
74376;HTU21D;62812;55.188;61.302;2023-06-10T03:22:46;24.35;33.55
74376;HTU21D;62812;55.188;61.302;2023-06-10T03:25:12;24.62;33.70
74376;HTU21D;62812;55.188;61.302;2023-06-10T03:27:42;24.83;32.60
74376;HTU21D;62812;55.188;61.302;2023-06-10T03:30:09;24.98;35.05
74376;HTU21D;62812;55.188;61.302;2023-06-10T03:32:36;25.04;33.47
74376;HTU21D;62812;55.188;61.302;2023-06-10T03:35:06;24.99;34.08
74376;HTU21D;62812;55.188;61.302;2023-06-10T03:37:36;25.03;33.95
74376;HTU21D;62812;55.188;61.302;2023-06-10T03:40:05;25.18;34.00
74376;HTU21D;62812;55.188;61.302;2023-06-10T03:42:35;25.25;33.29
74376;HTU21D;62812;55.188;61.302;2023-06-10T03:45:02;25.05;34.25
74376;HTU21D;62812;55.188;61.302;2023-06-10T03:47:33;25.00;32.94
74376;HTU21D;62812;55.188;61.302;2023-06-10T03:50:01;24.72;33.74
74376;HTU21D;62812;55.188;61.302;2023-06-10T03:52:31;24.82;33.02
74376;HTU21D;62812;55.188;61.302;2023-06-10T03:55:03;24.98;32.44
74376;HTU21D;62812;55.188;61.302;2023-06-10T03:57:29;24.93;33.61
74376;HTU21D;62812;55.188;61.302;2023-06-10T03:59:59;25.18;33.85
74376;HTU21D;62812;55.188;61.302;2023-06-10T04:02:29;25.33;32.48
74376;HTU21D;62812;55.188;61.302;2023-06-10T04:04:59;25.51;32.06
74376;HTU21D;62812;55.188;61.302;2023-06-10T04:07:25;25.67;32.90
74376;HTU21D;62812;55.188;61.302;2023-06-10T04:09:54;25.73;30.67
74376;HTU21D;62812;55.188;61.302;2023-06-10T04:12:21;25.64;30.83
74376;HTU21D;62812;55.188;61.302;2023-06-10T04:14:48;25.67;31.38
74376;HTU21D;62812;55.188;61.302;2023-06-10T04:20:12;25.66;31.19
74376;HTU21D;62812;55.188;61.302;2023-06-10T04:23:13;25.75;31.46
74376;HTU21D;62812;55.188;61.302;2023-06-10T04:25:56;25.89;30.57
74376;HTU21D;62812;55.188;61.302;2023-06-10T04:29:08;26.03;30.13
74376;HTU21D;62812;55.188;61.302;2023-06-10T04:36:05;26.04;31.79
74376;HTU21D;62812;55.188;61.302;2023-06-10T04:39:19;26.12;30.00
74376;HTU21D;62812;55.188;61.302;2023-06-10T04:42:09;26.41;29.95
74376;HTU21D;62812;55.188;61.302;2023-06-10T04:45:07;26.40;29.68
74376;HTU21D;62812;55.188;61.302;2023-06-10T04:47:38;26.47;29.16
74376;HTU21D;62812;55.188;61.302;2023-06-10T04:50:24;26.61;29.90
74376;HTU21D;62812;55.188;61.302;2023-06-10T04:53:29;26.56;29.31
74376;HTU21D;62812;55.188;61.302;2023-06-10T04:56:09;26.85;30.41
74376;HTU21D;62812;55.188;61.302;2023-06-10T04:58:58;26.91;28.93
74376;HTU21D;62812;55.188;61.302;2023-06-10T05:01:41;26.82;28.86
74376;HTU21D;62812;55.188;61.302;2023-06-10T05:04:34;26.63;32.06
74376;HTU21D;62812;55.188;61.302;2023-06-10T05:07:49;26.72;29.91
74376;HTU21D;62812;55.188;61.302;2023-06-10T05:10:29;26.71;31.14
74376;HTU21D;62812;55.188;61.302;2023-06-10T05:12:58;26.76;29.40
74376;HTU21D;62812;55.188;61.302;2023-06-10T05:18:42;26.62;29.62
74376;HTU21D;62812;55.188;61.302;2023-06-10T05:21:24;26.45;30.57
74376;HTU21D;62812;55.188;61.302;2023-06-10T05:24:35;26.33;30.27
74376;HTU21D;62812;55.188;61.302;2023-06-10T05:27:10;26.25;30.46
74376;HTU21D;62812;55.188;61.302;2023-06-10T05:32:40;26.04;29.84
74376;HTU21D;62812;55.188;61.302;2023-06-10T05:35:13;26.26;30.26
74376;HTU21D;62812;55.188;61.302;2023-06-10T05:38:03;26.34;30.02
74376;HTU21D;62812;55.188;61.302;2023-06-10T05:40:29;26.38;29.90
74376;HTU21D;62812;55.188;61.302;2023-06-10T05:42:56;26.60;29.15
74376;HTU21D;62812;55.188;61.302;2023-06-10T05:45:37;26.83;30.41
74376;HTU21D;62812;55.188;61.302;2023-06-10T05:48:13;26.92;31.83
74376;HTU21D;62812;55.188;61.302;2023-06-10T05:50:43;26.76;30.42
74376;HTU21D;62812;55.188;61.302;2023-06-10T05:53:14;26.31;29.60
74376;HTU21D;62812;55.188;61.302;2023-06-10T05:55:46;26.19;30.41
74376;HTU21D;62812;55.188;61.302;2023-06-10T05:58:51;26.12;29.78
74376;HTU21D;62812;55.188;61.302;2023-06-10T06:01:58;26.22;29.34
74376;HTU21D;62812;55.188;61.302;2023-06-10T06:04:30;26.26;29.29
74376;HTU21D;62812;55.188;61.302;2023-06-10T06:07:04;25.87;30.73
74376;HTU21D;62812;55.188;61.302;2023-06-10T06:09:35;25.91;29.73
74376;HTU21D;62812;55.188;61.302;2023-06-10T06:12:04;25.86;31.44
74376;HTU21D;62812;55.188;61.302;2023-06-10T06:14:37;26.02;30.37
74376;HTU21D;62812;55.188;61.302;2023-06-10T06:17:10;26.10;32.44
74376;HTU21D;62812;55.188;61.302;2023-06-10T06:19:51;26.11;30.32
74376;HTU21D;62812;55.188;61.302;2023-06-10T06:23:14;25.80;30.34
74376;HTU21D;62812;55.188;61.302;2023-06-10T06:25:49;25.78;30.52
74376;HTU21D;62812;55.188;61.302;2023-06-10T06:28:41;25.50;29.79
74376;HTU21D;62812;55.188;61.302;2023-06-10T06:32:40;25.19;29.87
74376;HTU21D;62812;55.188;61.302;2023-06-10T06:39:55;25.16;30.72
74376;HTU21D;62812;55.188;61.302;2023-06-10T06:42:25;25.19;31.15
74376;HTU21D;62812;55.188;61.302;2023-06-10T06:44:52;25.06;30.54
74376;HTU21D;62812;55.188;61.302;2023-06-10T06:47:18;25.10;30.96
74376;HTU21D;62812;55.188;61.302;2023-06-10T06:49:46;25.18;30.56
74376;HTU21D;62812;55.188;61.302;2023-06-10T06:52:15;25.34;29.35
74376;HTU21D;62812;55.188;61.302;2023-06-10T06:54:42;25.37;30.59
74376;HTU21D;62812;55.188;61.302;2023-06-10T06:57:10;25.29;28.41
74376;HTU21D;62812;55.188;61.302;2023-06-10T06:59:42;25.16;29.00
74376;HTU21D;62812;55.188;61.302;2023-06-10T07:02:13;25.40;30.90
74376;HTU21D;62812;55.188;61.302;2023-06-10T07:04:43;25.37;28.51
74376;HTU21D;62812;55.188;61.302;2023-06-10T07:07:12;25.47;29.84
74376;HTU21D;62812;55.188;61.302;2023-06-10T07:09:42;25.49;31.76
74376;HTU21D;62812;55.188;61.302;2023-06-10T07:12:15;25.58;31.38
74376;HTU21D;62812;55.188;61.302;2023-06-10T07:14:42;25.50;29.61
74376;HTU21D;62812;55.188;61.302;2023-06-10T07:17:12;25.39;30.62
74376;HTU21D;62812;55.188;61.302;2023-06-10T07:19:39;25.30;29.74
74376;HTU21D;62812;55.188;61.302;2023-06-10T07:22:07;25.12;28.77
74376;HTU21D;62812;55.188;61.302;2023-06-10T07:24:35;25.06;31.54
74376;HTU21D;62812;55.188;61.302;2023-06-10T07:27:06;25.12;30.92
74376;HTU21D;62812;55.188;61.302;2023-06-10T07:29:38;25.05;30.33
74376;HTU21D;62812;55.188;61.302;2023-06-10T07:32:05;25.02;27.00
74376;HTU21D;62812;55.188;61.302;2023-06-10T07:34:40;24.92;28.77
74376;HTU21D;62812;55.188;61.302;2023-06-10T07:37:07;24.94;27.84
74376;HTU21D;62812;55.188;61.302;2023-06-10T07:39:37;24.84;28.22
74376;HTU21D;62812;55.188;61.302;2023-06-10T07:42:05;24.89;28.42
74376;HTU21D;62812;55.188;61.302;2023-06-10T07:44:33;25.02;27.96
74376;HTU21D;62812;55.188;61.302;2023-06-10T07:47:04;25.01;29.95
74376;HTU21D;62812;55.188;61.302;2023-06-10T07:49:31;25.13;29.70
74376;HTU21D;62812;55.188;61.302;2023-06-10T07:51:59;25.20;29.98
74376;HTU21D;62812;55.188;61.302;2023-06-10T07:54:34;25.00;26.46
74376;HTU21D;62812;55.188;61.302;2023-06-10T07:57:03;24.90;28.20
74376;HTU21D;62812;55.188;61.302;2023-06-10T07:59:30;24.76;27.64
74376;HTU21D;62812;55.188;61.302;2023-06-10T08:01:57;24.70;27.87
74376;HTU21D;62812;55.188;61.302;2023-06-10T08:04:29;24.68;26.62
74376;HTU21D;62812;55.188;61.302;2023-06-10T08:07:21;24.58;31.48
74376;HTU21D;62812;55.188;61.302;2023-06-10T08:09:52;24.65;31.42
74376;HTU21D;62812;55.188;61.302;2023-06-10T08:12:18;24.85;30.07
74376;HTU21D;62812;55.188;61.302;2023-06-10T08:14:47;24.87;28.21
74376;HTU21D;62812;55.188;61.302;2023-06-10T08:17:15;24.92;27.74
74376;HTU21D;62812;55.188;61.302;2023-06-10T08:20:10;24.80;27.66
74376;HTU21D;62812;55.188;61.302;2023-06-10T08:22:41;24.79;31.84
74376;HTU21D;62812;55.188;61.302;2023-06-10T08:25:09;24.94;29.91
74376;HTU21D;62812;55.188;61.302;2023-06-10T08:27:36;24.88;27.74
74376;HTU21D;62812;55.188;61.302;2023-06-10T08:30:09;24.91;28.16
74376;HTU21D;62812;55.188;61.302;2023-06-10T08:32:46;24.92;26.94
74376;HTU21D;62812;55.188;61.302;2023-06-10T08:35:21;24.93;28.13
74376;HTU21D;62812;55.188;61.302;2023-06-10T08:37:51;24.90;28.34
74376;HTU21D;62812;55.188;61.302;2023-06-10T08:40:21;24.87;27.58
74376;HTU21D;62812;55.188;61.302;2023-06-10T08:42:54;24.91;29.40
74376;HTU21D;62812;55.188;61.302;2023-06-10T08:45:34;24.94;28.78
74376;HTU21D;62812;55.188;61.302;2023-06-10T08:48:04;25.01;28.39
74376;HTU21D;62812;55.188;61.302;2023-06-10T08:50:36;24.99;30.22
74376;HTU21D;62812;55.188;61.302;2023-06-10T08:53:05;25.16;26.63
74376;HTU21D;62812;55.188;61.302;2023-06-10T08:55:35;25.21;26.30
74376;HTU21D;62812;55.188;61.302;2023-06-10T08:58:04;25.34;25.88
74376;HTU21D;62812;55.188;61.302;2023-06-10T09:00:32;25.42;27.87
74376;HTU21D;62812;55.188;61.302;2023-06-10T09:02:59;25.47;25.67
74376;HTU21D;62812;55.188;61.302;2023-06-10T09:05:35;25.36;24.75
74376;HTU21D;62812;55.188;61.302;2023-06-10T09:08:04;25.38;27.80
74376;HTU21D;62812;55.188;61.302;2023-06-10T09:10:32;25.29;25.10
74376;HTU21D;62812;55.188;61.302;2023-06-10T09:12:59;25.25;25.01
74376;HTU21D;62812;55.188;61.302;2023-06-10T09:15:26;25.25;27.43
74376;HTU21D;62812;55.188;61.302;2023-06-10T09:17:53;25.17;24.60
74376;HTU21D;62812;55.188;61.302;2023-06-10T09:20:20;25.13;26.94
74376;HTU21D;62812;55.188;61.302;2023-06-10T09:22:53;25.10;26.37
74376;HTU21D;62812;55.188;61.302;2023-06-10T09:25:34;24.99;26.23
74376;HTU21D;62812;55.188;61.302;2023-06-10T09:28:04;24.84;28.73
74376;HTU21D;62812;55.188;61.302;2023-06-10T09:30:33;24.88;25.85
74376;HTU21D;62812;55.188;61.302;2023-06-10T09:33:01;24.98;27.08
74376;HTU21D;62812;55.188;61.302;2023-06-10T09:35:29;25.06;27.52
74376;HTU21D;62812;55.188;61.302;2023-06-10T09:38:03;25.15;26.44
74376;HTU21D;62812;55.188;61.302;2023-06-10T09:40:33;25.16;25.98
74376;HTU21D;62812;55.188;61.302;2023-06-10T09:43:18;25.23;27.05
74376;HTU21D;62812;55.188;61.302;2023-06-10T09:45:56;25.16;24.97
74376;HTU21D;62812;55.188;61.302;2023-06-10T09:48:23;25.19;27.13
74376;HTU21D;62812;55.188;61.302;2023-06-10T09:50:51;25.22;27.00
74376;HTU21D;62812;55.188;61.302;2023-06-10T09:53:28;25.20;28.87
74376;HTU21D;62812;55.188;61.302;2023-06-10T09:56:02;25.20;28.56
74376;HTU21D;62812;55.188;61.302;2023-06-10T09:58:37;25.09;27.22
74376;HTU21D;62812;55.188;61.302;2023-06-10T10:01:35;25.05;26.59
74376;HTU21D;62812;55.188;61.302;2023-06-10T10:04:25;25.17;27.90
74376;HTU21D;62812;55.188;61.302;2023-06-10T10:07:47;25.31;27.13
74376;HTU21D;62812;55.188;61.302;2023-06-10T10:14:00;25.32;27.36
74376;HTU21D;62812;55.188;61.302;2023-06-10T10:16:36;25.34;28.03
74376;HTU21D;62812;55.188;61.302;2023-06-10T10:21:43;25.40;28.81
74376;HTU21D;62812;55.188;61.302;2023-06-10T10:23:29;25.65;27.65
74376;HTU21D;62812;55.188;61.302;2023-06-10T10:26:00;25.83;27.47
74376;HTU21D;62812;55.188;61.302;2023-06-10T10:28:38;25.97;28.07
74376;HTU21D;62812;55.188;61.302;2023-06-10T10:31:22;25.95;27.18
74376;HTU21D;62812;55.188;61.302;2023-06-10T10:33:56;25.99;28.66
74376;HTU21D;62812;55.188;61.302;2023-06-10T10:36:24;26.01;26.13
74376;HTU21D;62812;55.188;61.302;2023-06-10T10:38:52;25.96;27.00
74376;HTU21D;62812;55.188;61.302;2023-06-10T10:41:20;25.98;26.72
74376;HTU21D;62812;55.188;61.302;2023-06-10T10:43:47;26.05;26.14
74376;HTU21D;62812;55.188;61.302;2023-06-10T10:46:18;26.09;26.30
74376;HTU21D;62812;55.188;61.302;2023-06-10T10:48:55;26.08;27.03
74376;HTU21D;62812;55.188;61.302;2023-06-10T10:51:26;26.22;27.54
74376;HTU21D;62812;55.188;61.302;2023-06-10T10:54:28;26.30;27.09
74376;HTU21D;62812;55.188;61.302;2023-06-10T10:57:16;26.46;26.39
74376;HTU21D;62812;55.188;61.302;2023-06-10T10:59:56;26.62;27.45
74376;HTU21D;62812;55.188;61.302;2023-06-10T11:02:41;26.78;26.97
74376;HTU21D;62812;55.188;61.302;2023-06-10T11:05:10;26.75;26.10
74376;HTU21D;62812;55.188;61.302;2023-06-10T11:07:38;26.62;28.16
74376;HTU21D;62812;55.188;61.302;2023-06-10T11:10:10;26.58;26.40
74376;HTU21D;62812;55.188;61.302;2023-06-10T11:12:52;26.46;26.06
74376;HTU21D;62812;55.188;61.302;2023-06-10T11:15:24;26.40;27.11
74376;HTU21D;62812;55.188;61.302;2023-06-10T11:18:13;26.31;27.28
74376;HTU21D;62812;55.188;61.302;2023-06-10T11:20:59;26.33;26.80
74376;HTU21D;62812;55.188;61.302;2023-06-10T11:23:33;26.27;27.26
74376;HTU21D;62812;55.188;61.302;2023-06-10T11:26:15;26.42;26.49
74376;HTU21D;62812;55.188;61.302;2023-06-10T11:29:10;26.31;25.68
74376;HTU21D;62812;55.188;61.302;2023-06-10T11:32:38;26.26;26.85
74376;HTU21D;62812;55.188;61.302;2023-06-10T11:35:13;26.19;29.95
74376;HTU21D;62812;55.188;61.302;2023-06-10T11:37:42;26.12;26.75
74376;HTU21D;62812;55.188;61.302;2023-06-10T11:40:10;26.03;26.87
74376;HTU21D;62812;55.188;61.302;2023-06-10T11:42:41;25.97;27.52
74376;HTU21D;62812;55.188;61.302;2023-06-10T11:45:14;25.94;27.53
74376;HTU21D;62812;55.188;61.302;2023-06-10T11:47:55;26.05;30.52
74376;HTU21D;62812;55.188;61.302;2023-06-10T11:50:33;26.08;28.57
74376;HTU21D;62812;55.188;61.302;2023-06-10T11:53:00;26.18;29.04
74376;HTU21D;62812;55.188;61.302;2023-06-10T11:55:45;26.25;28.07
74376;HTU21D;62812;55.188;61.302;2023-06-10T11:58:16;26.37;29.90
74376;HTU21D;62812;55.188;61.302;2023-06-10T12:01:09;26.43;29.84
74376;HTU21D;62812;55.188;61.302;2023-06-10T12:04:01;26.46;29.34
74376;HTU21D;62812;55.188;61.302;2023-06-10T12:06:38;26.48;27.33
74376;HTU21D;62812;55.188;61.302;2023-06-10T12:09:14;26.38;28.81
74376;HTU21D;62812;55.188;61.302;2023-06-10T12:11:50;26.23;28.06
74376;HTU21D;62812;55.188;61.302;2023-06-10T12:14:53;26.20;29.45
74376;HTU21D;62812;55.188;61.302;2023-06-10T12:17:23;26.13;30.35
74376;HTU21D;62812;55.188;61.302;2023-06-10T12:19:57;26.15;30.58
74376;HTU21D;62812;55.188;61.302;2023-06-10T12:22:36;26.19;29.41
74376;HTU21D;62812;55.188;61.302;2023-06-10T12:25:05;26.09;28.75
74376;HTU21D;62812;55.188;61.302;2023-06-10T12:27:34;25.95;30.00
74376;HTU21D;62812;55.188;61.302;2023-06-10T12:30:01;25.97;30.99
74376;HTU21D;62812;55.188;61.302;2023-06-10T12:32:39;25.96;30.01
74376;HTU21D;62812;55.188;61.302;2023-06-10T12:35:07;26.01;29.36
74376;HTU21D;62812;55.188;61.302;2023-06-10T12:37:39;25.95;30.83
74376;HTU21D;62812;55.188;61.302;2023-06-10T12:40:11;25.88;30.28
74376;HTU21D;62812;55.188;61.302;2023-06-10T12:42:46;25.87;30.74
74376;HTU21D;62812;55.188;61.302;2023-06-10T12:45:27;25.87;30.52
74376;HTU21D;62812;55.188;61.302;2023-06-10T12:48:05;25.83;30.49
74376;HTU21D;62812;55.188;61.302;2023-06-10T12:50:34;25.80;31.53
74376;HTU21D;62812;55.188;61.302;2023-06-10T12:53:15;25.61;30.91
74376;HTU21D;62812;55.188;61.302;2023-06-10T12:55:43;25.64;31.31
74376;HTU21D;62812;55.188;61.302;2023-06-10T12:58:12;25.62;31.48
74376;HTU21D;62812;55.188;61.302;2023-06-10T13:00:43;25.56;31.39
74376;HTU21D;62812;55.188;61.302;2023-06-10T13:03:15;25.56;31.49
74376;HTU21D;62812;55.188;61.302;2023-06-10T13:05:56;25.51;31.38
74376;HTU21D;62812;55.188;61.302;2023-06-10T13:08:29;25.48;31.81
74376;HTU21D;62812;55.188;61.302;2023-06-10T13:10:59;25.49;31.46
74376;HTU21D;62812;55.188;61.302;2023-06-10T13:13:27;25.46;32.39
74376;HTU21D;62812;55.188;61.302;2023-06-10T13:15:56;25.49;32.35
74376;HTU21D;62812;55.188;61.302;2023-06-10T13:18:24;25.56;32.16
74376;HTU21D;62812;55.188;61.302;2023-06-10T13:20:53;25.56;31.31
74376;HTU21D;62812;55.188;61.302;2023-06-10T13:23:20;25.46;31.38
74376;HTU21D;62812;55.188;61.302;2023-06-10T13:25:51;25.43;32.64
74376;HTU21D;62812;55.188;61.302;2023-06-10T13:28:19;25.47;31.41
74376;HTU21D;62812;55.188;61.302;2023-06-10T13:30:48;25.53;32.47
74376;HTU21D;62812;55.188;61.302;2023-06-10T13:33:19;25.56;32.23
74376;HTU21D;62812;55.188;61.302;2023-06-10T13:35:47;25.51;32.49
74376;HTU21D;62812;55.188;61.302;2023-06-10T13:38:15;25.59;32.44
74376;HTU21D;62812;55.188;61.302;2023-06-10T13:40:42;25.54;33.02
74376;HTU21D;62812;55.188;61.302;2023-06-10T13:43:15;25.50;32.73
74376;HTU21D;62812;55.188;61.302;2023-06-10T13:45:47;25.54;32.91
74376;HTU21D;62812;55.188;61.302;2023-06-10T13:48:17;25.57;32.50
74376;HTU21D;62812;55.188;61.302;2023-06-10T13:50:45;25.58;32.55
74376;HTU21D;62812;55.188;61.302;2023-06-10T13:53:13;25.66;32.88
74376;HTU21D;62812;55.188;61.302;2023-06-10T13:55:43;25.60;32.49
74376;HTU21D;62812;55.188;61.302;2023-06-10T13:58:11;25.59;32.01
74376;HTU21D;62812;55.188;61.302;2023-06-10T14:00:39;25.51;32.38
74376;HTU21D;62812;55.188;61.302;2023-06-10T14:03:07;25.44;31.96
74376;HTU21D;62812;55.188;61.302;2023-06-10T14:05:35;25.37;32.35
74376;HTU21D;62812;55.188;61.302;2023-06-10T14:08:02;25.27;32.55
74376;HTU21D;62812;55.188;61.302;2023-06-10T14:10:33;25.21;33.00
74376;HTU21D;62812;55.188;61.302;2023-06-10T14:13:06;25.25;32.85
74376;HTU21D;62812;55.188;61.302;2023-06-10T14:15:34;25.30;33.46
74376;HTU21D;62812;55.188;61.302;2023-06-10T14:18:03;25.32;32.64
74376;HTU21D;62812;55.188;61.302;2023-06-10T14:20:31;25.32;32.84
74376;HTU21D;62812;55.188;61.302;2023-06-10T14:22:58;25.32;33.14
74376;HTU21D;62812;55.188;61.302;2023-06-10T14:25:26;25.25;33.63
74376;HTU21D;62812;55.188;61.302;2023-06-10T14:27:54;25.25;33.60
74376;HTU21D;62812;55.188;61.302;2023-06-10T14:30:21;25.25;33.51
74376;HTU21D;62812;55.188;61.302;2023-06-10T14:32:50;25.24;33.48
74376;HTU21D;62812;55.188;61.302;2023-06-10T14:35:19;25.18;33.44
74376;HTU21D;62812;55.188;61.302;2023-06-10T14:37:50;25.12;33.64
74376;HTU21D;62812;55.188;61.302;2023-06-10T14:40:17;25.08;33.60
74376;HTU21D;62812;55.188;61.302;2023-06-10T14:42:46;25.04;33.76
74376;HTU21D;62812;55.188;61.302;2023-06-10T14:45:16;24.97;34.15
74376;HTU21D;62812;55.188;61.302;2023-06-10T14:47:43;24.94;34.27
74376;HTU21D;62812;55.188;61.302;2023-06-10T14:50:12;24.86;34.40
74376;HTU21D;62812;55.188;61.302;2023-06-10T14:52:40;24.79;35.01
74376;HTU21D;62812;55.188;61.302;2023-06-10T14:55:08;24.77;34.43
74376;HTU21D;62812;55.188;61.302;2023-06-10T14:57:35;24.77;34.31
74376;HTU21D;62812;55.188;61.302;2023-06-10T15:00:03;24.70;34.37
74376;HTU21D;62812;55.188;61.302;2023-06-10T15:02:31;24.69;34.37
74376;HTU21D;62812;55.188;61.302;2023-06-10T15:04:59;24.60;35.47
74376;HTU21D;62812;55.188;61.302;2023-06-10T15:07:26;24.58;35.51
74376;HTU21D;62812;55.188;61.302;2023-06-10T15:09:57;24.60;34.98
74376;HTU21D;62812;55.188;61.302;2023-06-10T15:12:24;24.59;35.05
74376;HTU21D;62812;55.188;61.302;2023-06-10T15:14:52;24.58;34.75
74376;HTU21D;62812;55.188;61.302;2023-06-10T15:17:21;24.56;34.56
74376;HTU21D;62812;55.188;61.302;2023-06-10T15:19:48;24.58;34.74
74376;HTU21D;62812;55.188;61.302;2023-06-10T15:22:18;24.58;34.67
74376;HTU21D;62812;55.188;61.302;2023-06-10T15:24:45;24.56;34.94
74376;HTU21D;62812;55.188;61.302;2023-06-10T15:27:14;24.55;34.64
74376;HTU21D;62812;55.188;61.302;2023-06-10T15:29:45;24.55;34.89
74376;HTU21D;62812;55.188;61.302;2023-06-10T15:32:12;24.53;34.99
74376;HTU21D;62812;55.188;61.302;2023-06-10T15:34:39;24.49;34.95
74376;HTU21D;62812;55.188;61.302;2023-06-10T15:37:08;24.47;35.05
74376;HTU21D;62812;55.188;61.302;2023-06-10T15:39:35;24.46;35.14
74376;HTU21D;62812;55.188;61.302;2023-06-10T15:42:04;24.43;35.28
74376;HTU21D;62812;55.188;61.302;2023-06-10T15:44:34;24.38;35.42
74376;HTU21D;62812;55.188;61.302;2023-06-10T15:47:01;24.29;35.48
74376;HTU21D;62812;55.188;61.302;2023-06-10T15:49:28;24.27;35.66
74376;HTU21D;62812;55.188;61.302;2023-06-10T15:51:55;24.24;35.54
74376;HTU21D;62812;55.188;61.302;2023-06-10T15:54:22;24.18;35.81
74376;HTU21D;62812;55.188;61.302;2023-06-10T15:56:49;24.13;35.85
74376;HTU21D;62812;55.188;61.302;2023-06-10T15:59:16;24.11;35.60
74376;HTU21D;62812;55.188;61.302;2023-06-10T16:01:46;24.08;35.94